Time;durP1;ratioP1;P1;durP2;ratioP2;P2;SDS_P1;SDS_P2;PMS_P1;PMS_P2;Temp;Humidity;BMP_temperature;BMP_pressure;BME280_temperature;BME280_humidity;BME280_pressure;Samples;Min_cycle;Max_cycle;Signal;HPM_P1;HPM_P2
2022/11/09 00:00:16;;;;;;;2.50;2.00;;;;;;;18.88;46.11;100067.38;820273;24;1304;-76
2022/11/09 00:00:37;;;;;;;2.15;1.95;;;;;;;18.82;46.31;100064.84;824215;24;1150;-76
2022/11/09 00:01:02;;;;;;;2.30;2.10;;;;;;;18.88;46.27;100070.88;829442;23;1009;-76
2022/11/09 00:01:23;;;;;;;2.17;1.90;;;;;;;18.89;46.08;100082.34;824024;23;1369;-76
2022/11/09 00:01:43;;;;;;;2.20;1.80;;;;;;;18.85;46.31;100062.13;824044;23;1222;-76
2022/11/09 00:02:04;;;;;;;2.60;1.90;;;;;;;18.91;46.16;100085.81;825491;23;1007;-76
2022/11/09 00:02:24;;;;;;;2.50;1.90;;;;;;;18.95;45.98;100076.06;824246;23;1304;-76
2022/11/09 00:02:45;;;;;;;4.10;2.00;;;;;;;18.90;45.99;100071.75;829312;23;1102;-76
2022/11/09 00:03:06;;;;;;;3.90;1.80;;;;;;;18.93;45.98;100076.09;829938;23;1114;-75
2022/11/09 00:03:27;;;;;;;3.70;1.80;;;;;;;18.90;46.07;100066.47;829098;23;1422;-76
2022/11/09 00:03:47;;;;;;;2.27;1.80;;;;;;;19.00;45.96;100082.16;837093;23;975;-76
2022/11/09 00:04:09;;;;;;;2.60;1.90;;;;;;;18.95;46.22;100073.44;831352;23;963;-75
2022/11/09 00:04:30;;;;;;;3.00;2.00;;;;;;;18.91;46.05;100068.22;827816;23;1126;-76
2022/11/09 00:04:50;;;;;;;2.20;2.00;;;;;;;18.98;45.95;100076.00;827681;23;1039;-76
2022/11/09 00:05:11;;;;;;;2.28;2.00;;;;;;;18.97;46.03;100071.63;829809;23;1043;-75
2022/11/09 00:05:32;;;;;;;2.10;1.90;;;;;;;18.94;45.98;100071.69;824069;24;1167;-76
2022/11/09 00:05:57;;;;;;;2.20;1.98;;;;;;;18.98;45.97;100070.72;823896;23;1088;-76
2022/11/09 00:06:17;;;;;;;2.60;2.10;;;;;;;18.98;45.74;100073.34;829277;23;1074;-75
2022/11/09 00:06:38;;;;;;;2.72;2.20;;;;;;;19.04;45.86;100081.22;830406;23;958;-75
2022/11/09 00:07:00;;;;;;;3.03;2.08;;;;;;;18.99;45.74;100077.78;829500;23;885;-75
2022/11/09 00:07:20;;;;;;;2.97;2.00;;;;;;;18.96;45.86;100061.94;830829;23;1078;-76
2022/11/09 00:07:41;;;;;;;2.70;1.90;;;;;;;19.04;45.88;100081.22;833289;23;974;-76
2022/11/09 00:08:06;;;;;;;2.15;1.90;;;;;;;19.06;45.76;100079.44;832259;23;1344;-76
2022/11/09 00:08:27;;;;;;;2.10;1.90;;;;;;;18.96;45.91;100080.44;832034;23;921;-76
2022/11/09 00:08:48;;;;;;;2.30;1.83;;;;;;;18.96;46.02;100072.53;827822;23;1115;-76
2022/11/09 00:09:08;;;;;;;2.35;1.77;;;;;;;18.91;46.13;100078.78;829299;23;1018;-77
2022/11/09 00:09:29;;;;;;;2.30;1.70;;;;;;;18.88;46.28;100086.75;833114;23;740;-76
2022/11/09 00:09:50;;;;;;;2.97;1.70;;;;;;;18.89;46.27;100080.56;823402;24;1248;-76
2022/11/09 00:10:10;;;;;;;3.20;1.80;;;;;;;18.90;46.11;100069.09;829252;23;1033;-76
2022/11/09 00:10:32;;;;;;;3.10;2.00;;;;;;;18.95;46.03;100065.50;827918;23;1091;-74
2022/11/09 00:10:52;;;;;;;2.10;1.90;;;;;;;18.97;46.01;100076.91;823937;23;1300;-75
2022/11/09 00:11:13;;;;;;;2.08;1.90;;;;;;;19.01;45.85;100068.03;824015;24;1260;-76
2022/11/09 00:11:34;;;;;;;2.63;1.90;;;;;;;18.97;45.83;100067.22;820241;24;1162;-75
2022/11/09 00:11:54;;;;;;;3.40;2.00;;;;;;;19.02;45.92;100075.06;825338;23;989;-76
2022/11/09 00:12:15;;;;;;;3.57;2.10;;;;;;;18.98;45.92;100068.06;828033;23;1197;-76
2022/11/09 00:12:36;;;;;;;3.20;1.90;;;;;;;19.02;45.77;100078.59;833232;23;1072;-76
2022/11/09 00:12:57;;;;;;;3.15;1.90;;;;;;;19.04;45.69;100071.53;827869;23;1081;-76
2022/11/09 00:13:17;;;;;;;2.80;1.90;;;;;;;18.98;46.03;100065.44;833253;23;1089;-76
2022/11/09 00:13:40;;;;;;;2.55;1.98;;;;;;;18.97;45.83;100058.41;829171;23;987;-76
2022/11/09 00:14:01;;;;;;;2.97;1.90;;;;;;;19.06;45.70;100087.38;829157;23;1089;-76
2022/11/09 00:14:22;;;;;;;2.63;2.00;;;;;;;18.97;45.95;100066.31;823969;24;1044;-76
2022/11/09 00:14:42;;;;;;;2.53;2.00;;;;;;;19.02;45.82;100072.41;821105;24;1091;-76
2022/11/09 00:15:03;;;;;;;2.10;1.80;;;;;;;18.97;45.87;100064.56;826337;23;1103;-76
2022/11/09 00:15:24;;;;;;;2.10;1.70;;;;;;;18.99;45.99;100072.47;824167;23;1418;-75
2022/11/09 00:15:44;;;;;;;2.03;1.63;;;;;;;18.98;45.86;100060.13;827851;23;1051;-76
2022/11/09 00:16:07;;;;;;;1.88;1.70;;;;;;;18.97;45.98;100071.63;825404;24;1154;-76
2022/11/09 00:16:27;;;;;;;1.88;1.70;;;;;;;18.99;45.92;100069.84;829275;23;850;-75
2022/11/09 00:16:48;;;;;;;1.70;1.60;;;;;;;18.97;46.06;100063.69;826854;23;1083;-76
2022/11/09 00:17:08;;;;;;;2.13;1.80;;;;;;;18.80;46.16;100056.94;823819;23;1421;-76
2022/11/09 00:17:29;;;;;;;3.15;1.80;;;;;;;18.92;46.09;100066.41;828067;23;1069;-75
2022/11/09 00:17:49;;;;;;;3.43;1.90;;;;;;;19.04;45.91;100068.00;825160;23;1125;-75
2022/11/09 00:18:10;;;;;;;3.28;1.80;;;;;;;19.02;45.94;100077.69;824025;24;1185;-76
2022/11/09 00:18:32;;;;;;;2.47;1.90;;;;;;;19.05;45.94;100085.59;821468;24;916;-76
2022/11/09 00:18:54;;;;;;;2.75;1.98;;;;;;;18.97;45.82;100063.69;825367;23;1123;-75
2022/11/09 00:19:15;;;;;;;2.47;2.10;;;;;;;19.09;45.87;100079.38;823872;23;1937;-76
2022/11/09 00:19:36;;;;;;;3.22;2.10;;;;;;;19.06;45.77;100079.44;823422;24;1083;-76
2022/11/09 00:19:56;;;;;;;3.17;2.00;;;;;;;19.10;45.94;100059.06;829632;23;1109;-75
2022/11/09 00:20:17;;;;;;;3.10;1.80;;;;;;;19.11;45.74;100074.91;827771;23;1423;-75
2022/11/09 00:20:38;;;;;;;2.10;1.90;;;;;;;19.09;45.73;100067.91;829279;23;943;-76
2022/11/09 00:21:05;;;;;;;2.15;1.85;;;;;;;19.08;45.90;100072.34;823976;23;1361;-75
2022/11/09 00:21:25;;;;;;;2.22;1.90;;;;;;;19.09;45.82;100076.72;824051;24;855;-76
2022/11/09 00:21:46;;;;;;;3.08;1.90;;;;;;;19.07;45.73;100075.88;825333;24;1015;-76
2022/11/09 00:22:06;;;;;;;3.15;2.15;;;;;;;19.12;45.77;100063.44;824504;23;1137;-76
2022/11/09 00:22:27;;;;;;;3.83;2.20;;;;;;;18.98;45.87;100062.78;816430;24;1240;-76
2022/11/09 00:22:49;;;;;;;3.45;2.35;;;;;;;18.78;46.21;100069.31;821425;24;1123;-76
2022/11/09 00:23:09;;;;;;;2.95;1.98;;;;;;;18.77;46.38;100062.28;824035;24;1249;-75
2022/11/09 00:23:30;;;;;;;2.42;1.90;;;;;;;18.85;46.35;100072.72;827842;23;907;-75
2022/11/09 00:23:51;;;;;;;1.95;1.65;;;;;;;18.73;46.37;100060.56;829186;23;854;-76
2022/11/09 00:24:12;;;;;;;3.03;1.90;;;;;;;18.75;46.37;100058.81;823987;24;1094;-76
2022/11/09 00:24:33;;;;;;;2.90;1.90;;;;;;;18.75;46.71;100061.44;827977;23;1285;-76
2022/11/09 00:24:54;;;;;;;2.63;1.90;;;;;;;18.67;46.58;100060.72;829155;23;867;-76
2022/11/09 00:25:15;;;;;;;1.90;1.77;;;;;;;18.70;46.46;100092.34;826183;23;967;-76
2022/11/09 00:25:36;;;;;;;2.10;1.90;;;;;;;18.53;46.92;100069.72;827701;23;1060;-75
2022/11/09 00:26:00;;;;;;;2.13;1.73;;;;;;;18.55;47.11;100077.66;831639;23;1127;-76
2022/11/09 00:26:21;;;;;;;2.35;2.00;;;;;;;18.46;47.09;100068.09;827693;23;1215;-75
2022/11/09 00:26:42;;;;;;;2.28;1.90;;;;;;;18.54;47.21;100071.47;833276;23;978;-76
2022/11/09 00:27:02;;;;;;;2.28;1.98;;;;;;;18.54;47.27;100071.47;827703;23;1176;-76
2022/11/09 00:27:23;;;;;;;2.20;1.80;;;;;;;18.52;47.21;100075.91;824156;24;1155;-76
2022/11/09 00:27:44;;;;;;;2.90;2.00;;;;;;;18.50;47.20;100067.13;825231;24;1019;-76
2022/11/09 00:28:04;;;;;;;2.55;1.90;;;;;;;18.52;47.10;100062.72;829137;23;982;-76
2022/11/09 00:28:25;;;;;;;2.70;1.80;;;;;;;18.59;47.04;100069.63;829260;23;761;-76
2022/11/09 00:28:47;;;;;;;2.10;1.70;;;;;;;18.55;47.04;100065.28;829156;23;1073;-76
2022/11/09 00:29:08;;;;;;;2.60;1.70;;;;;;;18.54;47.24;100079.41;827798;23;1296;-76
2022/11/09 00:29:29;;;;;;;3.63;1.83;;;;;;;18.70;46.93;100071.22;831574;23;1798;-76
2022/11/09 00:29:50;;;;;;;6.40;1.90;;;;;;;18.70;46.97;100056.25;827276;23;1253;-76
2022/11/09 00:30:12;;;;;;;6.20;1.90;;;;;;;18.68;46.89;100067.75;831650;23;1140;-76
2022/11/09 00:30:33;;;;;;;2.45;1.63;;;;;;;18.70;46.64;100056.25;829154;23;1061;-76
2022/11/09 00:31:00;;;;;;;2.73;1.73;;;;;;;18.77;46.74;100072.84;829190;23;1012;-75
2022/11/09 00:31:23;;;;;;;3.95;2.00;;;;;;;18.80;46.70;100061.38;823904;24;1391;-75
2022/11/09 00:31:43;;;;;;;3.25;1.88;;;;;;;18.76;46.76;100071.13;820083;24;1821;-76
2022/11/09 00:32:04;;;;;;;3.33;1.75;;;;;;;18.79;46.73;100065.75;819631;24;1355;-76
2022/11/09 00:32:25;;;;;;;3.60;1.70;;;;;;;18.80;46.67;100062.22;824120;24;1163;-76
2022/11/09 00:32:46;;;;;;;3.10;1.70;;;;;;;18.96;46.60;100067.22;825367;23;1064;-77
2022/11/09 00:33:09;;;;;;;3.38;1.75;;;;;;;18.90;46.68;100066.47;825409;23;1008;-75
2022/11/09 00:33:30;;;;;;;4.10;1.70;;;;;;;18.99;46.26;100061.91;821612;24;891;-76
2022/11/09 00:33:53;;;;;;;4.30;1.70;;;;;;;19.10;46.15;100081.09;820048;24;1286;-76
2022/11/09 00:34:14;;;;;;;3.30;1.70;;;;;;;19.04;46.17;100060.94;822861;24;954;-76
2022/11/09 00:34:36;;;;;;;3.15;1.80;;;;;;;19.07;46.03;100081.19;827284;23;931;-76
2022/11/09 00:34:56;;;;;;;3.00;1.80;;;;;;;19.12;46.14;100071.38;831701;23;970;-77
2022/11/09 00:35:17;;;;;;;3.77;1.80;;;;;;;19.06;46.07;100063.56;829256;23;1168;-76
2022/11/09 00:35:38;;;;;;;3.20;1.90;;;;;;;19.03;46.14;100058.31;829250;23;1090;-76
2022/11/09 00:36:06;;;;;;;2.90;1.88;;;;;;;18.94;46.17;100061.09;829184;23;1024;-75
2022/11/09 00:36:28;;;;;;;3.08;1.80;;;;;;;19.07;46.17;100070.59;827582;23;1186;-76
2022/11/09 00:36:48;;;;;;;3.30;1.80;;;;;;;19.09;46.14;100073.19;828971;23;1091;-76
2022/11/09 00:37:09;;;;;;;3.00;1.85;;;;;;;19.04;46.08;100068.00;829117;23;1058;-76
2022/11/09 00:37:32;;;;;;;2.40;1.92;;;;;;;19.02;46.09;100060.09;823975;23;1261;-76
2022/11/09 00:37:53;;;;;;;3.00;1.90;;;;;;;19.04;46.13;100060.06;823805;24;1252;-76
2022/11/09 00:38:13;;;;;;;3.08;2.00;;;;;;;19.05;46.18;100061.81;823909;24;1417;-75
2022/11/09 00:38:35;;;;;;;3.00;2.05;;;;;;;19.03;46.27;100064.50;825445;23;912;-76
2022/11/09 00:38:59;;;;;;;2.80;2.20;;;;;;;19.06;46.18;100062.69;825485;23;1010;-76
2022/11/09 00:39:19;;;;;;;2.80;2.10;;;;;;;19.01;46.15;100054.81;825384;24;1963;-76
2022/11/09 00:39:40;;;;;;;2.50;2.00;;;;;;;18.99;46.09;100053.97;827859;23;1133;-76
2022/11/09 00:40:00;;;;;;;2.53;1.98;;;;;;;18.87;46.60;100063.84;832907;23;1011;-75
2022/11/09 00:40:21;;;;;;;2.60;2.10;;;;;;;18.76;46.88;100056.13;827997;23;1129;-76
2022/11/09 00:40:41;;;;;;;2.60;2.00;;;;;;;18.74;46.83;100060.56;833425;23;1090;-76
2022/11/09 00:41:03;;;;;;;2.10;1.90;;;;;;;18.75;47.07;100074.66;829399;23;1113;-76
2022/11/09 00:41:26;;;;;;;2.08;1.80;;;;;;;18.66;46.96;100054.53;829541;23;835;-76
2022/11/09 00:41:49;;;;;;;1.98;1.70;;;;;;;18.64;46.99;100066.91;825521;24;932;-76
2022/11/09 00:42:09;;;;;;;2.43;1.83;;;;;;;18.62;47.14;100059.00;829463;23;934;-75
2022/11/09 00:42:30;;;;;;;2.00;1.80;;;;;;;18.60;47.11;100059.91;829427;23;791;-76
2022/11/09 00:42:50;;;;;;;3.63;2.00;;;;;;;18.59;47.22;100056.44;829439;23;965;-76
2022/11/09 00:43:11;;;;;;;4.40;1.95;;;;;;;18.58;47.13;100067.91;828138;23;1288;-76
2022/11/09 00:43:33;;;;;;;4.50;2.03;;;;;;;18.58;47.48;100067.91;825596;23;1030;-76
2022/11/09 00:43:53;;;;;;;3.08;1.90;;;;;;;18.51;47.67;100058.31;828143;23;1089;-76
2022/11/09 00:44:14;;;;;;;2.40;1.90;;;;;;;18.50;47.56;100059.19;828015;23;1265;-76
2022/11/09 00:44:34;;;;;;;2.50;2.00;;;;;;;18.48;47.55;100058.34;829494;23;1104;-75
2022/11/09 00:44:55;;;;;;;2.30;2.10;;;;;;;18.48;47.52;100056.59;825416;23;1046;-77
2022/11/09 00:45:16;;;;;;;2.35;2.10;;;;;;;18.52;47.57;100065.34;821646;24;1086;-76
2022/11/09 00:45:36;;;;;;;2.30;2.10;;;;;;;18.48;47.41;100061.00;828018;23;1003;-77
2022/11/09 00:45:57;;;;;;;3.10;2.00;;;;;;;18.47;47.53;100067.19;820282;24;1199;-76
2022/11/09 00:46:19;;;;;;;3.20;2.03;;;;;;;18.46;47.60;100057.53;820255;24;1132;-76
2022/11/09 00:46:39;;;;;;;3.38;1.88;;;;;;;18.49;47.42;100057.44;829487;23;939;-76
2022/11/09 00:47:00;;;;;;;3.33;1.83;;;;;;;18.55;47.57;100073.22;824194;23;1160;-76
2022/11/09 00:47:20;;;;;;;3.60;1.80;;;;;;;18.48;47.34;100055.72;824163;24;1142;-76
2022/11/09 00:47:41;;;;;;;3.50;1.87;;;;;;;18.50;47.50;100048.63;829389;23;987;-76
2022/11/09 00:48:02;;;;;;;2.38;1.80;;;;;;;18.52;47.42;100060.06;829291;23;965;-75
2022/11/09 00:48:23;;;;;;;1.88;1.70;;;;;;;18.55;47.42;100064.44;823624;24;807;-76
2022/11/09 00:48:44;;;;;;;1.88;1.77;;;;;;;18.47;47.59;100053.97;825314;23;1040;-75
2022/11/09 00:49:04;;;;;;;1.95;1.75;;;;;;;18.52;47.56;100057.41;827732;23;1191;-75
2022/11/09 00:49:25;;;;;;;2.38;1.90;;;;;;;18.48;47.55;100061.88;829250;23;796;-76
2022/11/09 00:49:46;;;;;;;2.50;1.90;;;;;;;18.51;47.62;100060.97;828815;23;1122;-76
2022/11/09 00:50:24;;;;;;;2.10;1.90;;;;;;;18.48;47.60;100045.16;831473;23;1366;-76
2022/11/09 00:50:52;;;;;;;2.08;1.80;;;;;;;18.47;47.41;100065.44;833079;23;1125;-76
2022/11/09 00:51:13;;;;;;;2.90;2.10;;;;;;;18.44;47.49;100057.53;827984;23;1344;-76
2022/11/09 00:51:34;;;;;;;2.70;2.10;;;;;;;18.47;47.69;100048.69;833324;23;1013;-76
2022/11/09 00:51:56;;;;;;;2.97;2.00;;;;;;;18.43;47.61;100068.16;824301;23;1280;-76
2022/11/09 00:52:17;;;;;;;2.20;1.75;;;;;;;18.54;47.57;100055.63;829370;23;1103;-76
2022/11/09 00:52:37;;;;;;;2.30;1.80;;;;;;;18.54;47.44;100055.63;831819;23;998;-75
2022/11/09 00:52:58;;;;;;;2.00;1.80;;;;;;;18.55;47.17;100056.50;820248;24;995;-76
2022/11/09 00:53:21;;;;;;;2.10;1.90;;;;;;;18.49;47.41;100049.53;828085;23;1069;-76
2022/11/09 00:53:42;;;;;;;2.70;1.98;;;;;;;18.45;47.71;100048.72;829514;23;1053;-76
2022/11/09 00:54:03;;;;;;;3.30;1.80;;;;;;;18.46;47.71;100053.13;828004;23;1421;-75
2022/11/09 00:54:23;;;;;;;3.77;2.00;;;;;;;18.35;47.85;100055.03;829575;23;871;-76
2022/11/09 00:54:44;;;;;;;3.40;2.10;;;;;;;18.41;47.84;100054.94;827965;23;1138;-76
2022/11/09 00:55:05;;;;;;;2.50;1.90;;;;;;;18.45;47.57;100047.84;829431;23;1106;-76
2022/11/09 00:55:26;;;;;;;2.00;1.80;;;;;;;18.45;47.47;100035.50;832113;23;1143;-75
2022/11/09 00:56:13;;;;;;;1.70;1.60;;;;;;;18.52;47.55;100061.81;836030;23;1018;-76
2022/11/09 00:56:34;;;;;;;2.20;2.00;;;;;;;18.45;47.67;100050.50;820748;23;1286;-75
2022/11/09 00:56:56;;;;;;;2.63;2.30;;;;;;;18.48;47.56;100050.44;828017;23;1359;-76
2022/11/09 00:57:17;;;;;;;2.85;2.28;;;;;;;18.46;47.40;100046.94;828205;23;1192;-75
2022/11/09 00:57:39;;;;;;;2.65;2.03;;;;;;;18.41;47.62;100044.38;832044;23;1252;-76
2022/11/09 00:58:00;;;;;;;2.50;1.90;;;;;;;18.45;47.42;100053.13;824223;24;1517;-76
2022/11/09 00:58:21;;;;;;;2.30;1.90;;;;;;;18.41;47.58;100054.06;824135;24;1201;-76
2022/11/09 00:58:42;;;;;;;2.78;1.90;;;;;;;18.42;47.65;100050.53;828058;23;1284;-76
2022/11/09 00:59:03;;;;;;;3.75;1.90;;;;;;;18.46;47.48;100049.59;824200;24;1108;-76
2022/11/09 00:59:24;;;;;;;3.95;2.00;;;;;;;18.43;47.59;100052.28;829408;23;2016;-77
2022/11/09 00:59:44;;;;;;;2.75;1.95;;;;;;;18.46;47.61;100053.13;823954;24;1308;-76
2022/11/09 01:00:05;;;;;;;3.47;1.90;;;;;;;18.48;47.73;100058.34;828893;23;1041;-77
2022/11/09 01:00:26;;;;;;;3.40;1.90;;;;;;;18.30;47.89;100046.31;831091;23;1317;-76
2022/11/09 01:00:47;;;;;;;3.05;1.80;;;;;;;18.21;48.04;100053.47;829853;23;1120;-76
2022/11/09 01:01:11;;;;;;;2.53;1.90;;;;;;;18.22;48.38;100057.00;833424;23;967;-76
2022/11/09 01:01:35;;;;;;;3.05;2.00;;;;;;;18.08;48.16;100042.19;828616;23;1059;-76
2022/11/09 01:01:55;;;;;;;2.70;1.83;;;;;;;18.10;48.32;100055.38;824137;23;1234;-77
2022/11/09 01:02:16;;;;;;;4.00;1.70;;;;;;;18.15;48.47;100052.72;824066;24;1120;-76
2022/11/09 01:02:36;;;;;;;3.33;1.63;;;;;;;18.14;48.46;100050.94;820387;24;1292;-76
2022/11/09 01:02:57;;;;;;;3.10;1.70;;;;;;;18.11;48.59;100056.25;821540;24;1109;-76
2022/11/09 01:03:19;;;;;;;2.10;1.90;;;;;;;18.09;48.50;100058.94;824066;24;1148;-76
2022/11/09 01:03:40;;;;;;;2.78;1.90;;;;;;;18.08;48.58;100057.19;824234;23;1229;-77
2022/11/09 01:04:01;;;;;;;2.80;2.10;;;;;;;18.06;48.59;100057.19;828031;23;1187;-76
2022/11/09 01:04:22;;;;;;;2.50;1.90;;;;;;;18.07;48.79;100066.00;828124;23;1265;-77
2022/11/09 01:05:02;;;;;;;2.15;1.95;;;;;;;18.09;48.41;100075.63;824192;23;1075;-76
2022/11/09 01:05:23;;;;;;;2.20;1.90;;;;;;;18.06;48.80;100053.69;829256;23;1137;-76
2022/11/09 01:05:43;;;;;;;1.90;1.70;;;;;;;18.06;48.73;100059.84;828139;23;1101;-76
2022/11/09 01:06:05;;;;;;;2.13;1.75;;;;;;;18.09;48.70;100058.94;829320;23;1118;-77
2022/11/09 01:06:26;;;;;;;3.10;1.70;;;;;;;18.13;48.43;100046.56;828135;23;1405;-75
2022/11/09 01:06:47;;;;;;;3.47;1.70;;;;;;;18.26;48.21;100055.19;833183;23;1095;-76
2022/11/09 01:07:08;;;;;;;3.00;1.80;;;;;;;18.27;48.17;100043.72;829346;23;1051;-76
2022/11/09 01:07:28;;;;;;;2.30;1.80;;;;;;;18.32;48.09;100050.69;824216;24;1099;-76
2022/11/09 01:07:49;;;;;;;2.10;1.80;;;;;;;18.33;47.92;100056.84;825432;24;1133;-76
2022/11/09 01:08:10;;;;;;;2.00;1.67;;;;;;;18.36;47.94;100060.31;824329;23;1272;-77
2022/11/09 01:08:32;;;;;;;2.25;1.60;;;;;;;18.38;47.80;100048.84;825642;24;1062;-77
2022/11/09 01:08:53;;;;;;;2.20;1.60;;;;;;;18.37;47.83;100058.53;827970;23;1011;-76
2022/11/09 01:09:13;;;;;;;2.30;1.50;;;;;;;18.35;47.99;100052.41;828098;23;1260;-76
2022/11/09 01:09:34;;;;;;;1.63;1.50;;;;;;;18.36;47.92;100056.78;829241;23;967;-76
2022/11/09 01:09:55;;;;;;;2.00;1.70;;;;;;;18.32;47.87;100049.81;827744;23;1284;-76
2022/11/09 01:10:18;;;;;;;2.10;1.80;;;;;;;18.33;47.86;100057.69;820258;24;1102;-76
2022/11/09 01:10:42;;;;;;;2.33;1.90;;;;;;;18.36;47.87;100055.03;824270;23;984;-76
2022/11/09 01:11:06;;;;;;;2.30;1.98;;;;;;;18.37;47.72;100053.25;823133;24;1100;-77
2022/11/09 01:11:26;;;;;;;2.20;1.92;;;;;;;18.40;47.79;100053.22;825260;24;832;-76
2022/11/09 01:11:47;;;;;;;2.47;1.90;;;;;;;18.41;48.02;100062.00;825591;23;988;-76
2022/11/09 01:12:08;;;;;;;3.10;1.90;;;;;;;18.38;47.94;100064.69;828006;23;1052;-76
2022/11/09 01:12:29;;;;;;;2.80;1.88;;;;;;;18.35;47.79;100055.94;820274;24;1184;-76
2022/11/09 01:12:49;;;;;;;2.85;1.70;;;;;;;18.37;47.85;100047.97;831828;23;1424;-76
2022/11/09 01:13:12;;;;;;;1.87;1.60;;;;;;;18.40;47.90;100062.88;833358;23;955;-76
2022/11/09 01:13:33;;;;;;;2.17;1.70;;;;;;;18.41;47.71;100054.94;827917;23;1104;-76
2022/11/09 01:13:54;;;;;;;2.00;1.80;;;;;;;18.42;47.67;100059.34;829190;23;875;-77
2022/11/09 01:14:15;;;;;;;2.90;1.98;;;;;;;18.33;47.65;100057.69;829435;23;1074;-77
2022/11/09 01:14:35;;;;;;;2.80;2.00;;;;;;;18.33;47.85;100047.13;828123;23;924;-76
2022/11/09 01:14:57;;;;;;;2.53;2.10;;;;;;;18.35;47.56;100055.94;825481;23;980;-76
2022/11/09 01:15:19;;;;;;;2.28;2.08;;;;;;;18.32;47.91;100052.47;824134;23;1950;-75
2022/11/09 01:15:48;;;;;;;2.13;1.93;;;;;;;18.38;47.63;100048.84;829375;23;1125;-76
2022/11/09 01:16:17;;;;;;;2.00;1.80;;;;;;;18.47;47.68;100059.25;823784;24;1051;-77
2022/11/09 01:16:38;;;;;;;1.90;1.80;;;;;;;18.38;47.66;100041.78;825345;23;942;-76
2022/11/09 01:17:08;;;;;;;2.08;1.88;;;;;;;18.43;47.38;100057.56;824166;23;1356;-76
2022/11/09 01:17:28;;;;;;;2.25;1.80;;;;;;;18.42;47.55;100061.09;825209;23;901;-76
2022/11/09 01:17:50;;;;;;;2.20;1.80;;;;;;;18.52;47.57;100078.56;824043;23;1124;-76
2022/11/09 01:18:11;;;;;;;2.45;1.80;;;;;;;18.44;47.53;100054.88;820367;24;1059;-76
2022/11/09 01:18:32;;;;;;;2.30;1.80;;;;;;;18.43;47.49;100045.22;829523;23;1064;-76
2022/11/09 01:18:56;;;;;;;2.85;1.90;;;;;;;18.52;47.61;100065.34;829304;23;1078;-76
2022/11/09 01:19:18;;;;;;;2.20;2.00;;;;;;;18.49;47.46;100060.09;829385;23;1878;-76
2022/11/09 01:19:39;;;;;;;2.35;2.10;;;;;;;18.40;47.47;100047.03;832994;23;1064;-76
2022/11/09 01:19:59;;;;;;;2.30;1.93;;;;;;;18.48;47.48;100055.72;827663;23;1175;-76
2022/11/09 01:20:20;;;;;;;2.35;1.90;;;;;;;18.49;47.57;100053.06;828094;23;1223;-77
2022/11/09 01:20:43;;;;;;;2.33;1.80;;;;;;;18.49;47.63;100060.09;829512;23;1102;-77
2022/11/09 01:21:14;;;;;;;2.10;1.90;;;;;;;18.47;47.61;100051.34;829247;23;1203;-76
2022/11/09 01:21:35;;;;;;;2.30;1.80;;;;;;;18.46;47.54;100052.22;828024;23;1101;-77
2022/11/09 01:21:55;;;;;;;2.50;2.00;;;;;;;18.36;47.58;100040.94;825236;23;1060;-77
2022/11/09 01:22:20;;;;;;;3.05;2.00;;;;;;;18.35;47.71;100044.47;823115;24;1027;-76
2022/11/09 01:22:41;;;;;;;2.50;1.85;;;;;;;18.38;47.91;100059.41;825606;24;991;-77
2022/11/09 01:23:02;;;;;;;2.13;1.77;;;;;;;18.39;47.60;100045.31;824561;23;1339;-76
2022/11/09 01:23:24;;;;;;;1.98;1.70;;;;;;;18.29;47.70;100037.53;828012;23;1146;-75
2022/11/09 01:23:44;;;;;;;2.30;1.77;;;;;;;18.31;47.88;100050.72;831829;23;1176;-76
2022/11/09 01:24:05;;;;;;;2.03;1.80;;;;;;;18.35;47.79;100047.13;829384;23;1007;-76
2022/11/09 01:24:26;;;;;;;2.00;1.80;;;;;;;18.31;47.92;100048.94;829439;23;797;-76
2022/11/09 01:24:49;;;;;;;1.80;1.70;;;;;;;18.20;48.14;100045.59;820265;24;1316;-76
2022/11/09 01:25:10;;;;;;;1.70;1.60;;;;;;;18.29;48.08;100061.31;824115;23;971;-77
2022/11/09 01:25:30;;;;;;;2.10;1.60;;;;;;;18.36;47.86;100049.75;824200;24;1155;-76
2022/11/09 01:25:57;;;;;;;2.27;1.60;;;;;;;18.43;47.92;100060.22;825505;23;1049;-77
2022/11/09 01:26:18;;;;;;;2.70;1.70;;;;;;;18.46;47.77;100068.09;823956;23;1249;-76
2022/11/09 01:26:38;;;;;;;3.15;1.80;;;;;;;18.42;47.68;100056.69;824136;23;1127;-75
2022/11/09 01:26:59;;;;;;;3.13;1.85;;;;;;;18.38;47.69;100044.41;825414;23;980;-77
2022/11/09 01:27:20;;;;;;;3.20;1.90;;;;;;;18.26;47.97;100055.19;828775;23;1208;-76
2022/11/09 01:27:40;;;;;;;2.33;1.80;;;;;;;18.32;47.96;100055.09;828185;23;1319;-77
2022/11/09 01:28:01;;;;;;;4.70;1.80;;;;;;;18.44;47.67;100059.31;829939;23;1094;-76
2022/11/09 01:28:22;;;;;;;4.40;1.80;;;;;;;18.51;47.48;100063.59;824087;23;1121;-76
2022/11/09 01:28:42;;;;;;;6.03;1.90;;;;;;;18.47;47.58;100069.81;831556;23;1285;-76
2022/11/09 01:29:03;;;;;;;4.03;1.80;;;;;;;18.43;47.54;100049.66;827923;23;1197;-77
2022/11/09 01:29:26;;;;;;;4.53;1.80;;;;;;;18.44;47.69;100051.41;827828;23;1160;-76
2022/11/09 01:29:49;;;;;;;2.65;1.90;;;;;;;18.46;47.64;100054.88;823475;23;1099;-76
2022/11/09 01:30:10;;;;;;;3.90;2.00;;;;;;;18.43;47.55;100055.78;820504;24;1411;-77
2022/11/09 01:30:38;;;;;;;4.13;1.90;;;;;;;18.30;47.67;100052.47;820063;24;1148;-76
2022/11/09 01:31:02;;;;;;;3.45;1.70;;;;;;;18.29;47.93;100056.03;824078;24;1198;-77
2022/11/09 01:31:24;;;;;;;2.00;1.70;;;;;;;18.30;47.95;100057.75;830888;23;1147;-77
2022/11/09 01:31:47;;;;;;;1.80;1.60;;;;;;;18.27;48.06;100060.47;827916;23;1151;-77
2022/11/09 01:32:07;;;;;;;1.90;1.70;;;;;;;18.23;48.05;100045.53;823929;23;976;-76
2022/11/09 01:32:31;;;;;;;2.83;1.70;;;;;;;18.26;48.23;100065.75;829316;23;777;-77
2022/11/09 01:32:58;;;;;;;3.10;1.88;;;;;;;18.19;48.11;100057.06;827934;23;1128;-77
2022/11/09 01:33:20;;;;;;;2.10;1.88;;;;;;;18.08;48.24;100050.13;841157;23;1084;-77
2022/11/09 01:33:41;;;;;;;2.17;1.80;;;;;;;18.08;48.30;100055.41;835758;23;1303;-77
2022/11/09 01:34:01;;;;;;;2.00;1.70;;;;;;;18.12;48.27;100050.09;825415;24;1106;-76
2022/11/09 01:34:22;;;;;;;2.60;1.70;;;;;;;18.22;48.12;100059.66;824121;24;1122;-77
2022/11/09 01:34:43;;;;;;;2.60;1.80;;;;;;;18.19;48.20;100059.72;831987;23;1264;-76
2022/11/09 01:35:04;;;;;;;2.40;1.80;;;;;;;18.17;48.17;100056.19;824140;23;1368;-76
2022/11/09 01:35:25;;;;;;;2.00;1.80;;;;;;;18.20;48.13;100040.31;828078;23;1291;-76
2022/11/09 01:35:45;;;;;;;1.90;1.80;;;;;;;18.25;48.05;100037.59;829418;23;1133;-76
2022/11/09 01:36:09;;;;;;;1.90;1.80;;;;;;;18.28;48.22;100048.09;825537;24;1094;-76
2022/11/09 01:36:30;;;;;;;1.90;1.80;;;;;;;18.13;48.21;100043.91;827852;23;1311;-77
2022/11/09 01:36:53;;;;;;;1.90;1.70;;;;;;;18.18;48.18;100053.53;823932;23;1066;-76
2022/11/09 01:37:16;;;;;;;2.10;1.70;;;;;;;18.22;48.20;100059.66;821428;23;1098;-76
2022/11/09 01:37:36;;;;;;;2.20;1.80;;;;;;;18.18;48.19;100048.25;824231;23;1136;-76
2022/11/09 01:37:57;;;;;;;1.80;1.70;;;;;;;18.22;48.09;100054.38;824124;24;1283;-76
2022/11/09 01:38:17;;;;;;;1.70;1.60;;;;;;;18.20;48.21;100045.59;833261;23;1029;-77
2022/11/09 01:38:39;;;;;;;3.03;1.67;;;;;;;18.10;48.38;100044.84;827975;23;1154;-76
2022/11/09 01:39:02;;;;;;;3.40;1.80;;;;;;;18.21;48.37;100050.00;824027;23;1150;-76
2022/11/09 01:39:23;;;;;;;2.80;2.00;;;;;;;18.08;48.25;100047.47;820242;24;1948;-77
2022/11/09 01:39:43;;;;;;;1.98;1.80;;;;;;;18.13;48.22;100043.91;819919;24;1149;-76
2022/11/09 01:40:04;;;;;;;1.83;1.73;;;;;;;18.16;48.07;100039.50;821233;24;1059;-76
2022/11/09 01:40:27;;;;;;;1.73;1.63;;;;;;;18.17;48.26;100056.19;824268;24;907;-76
2022/11/09 01:40:48;;;;;;;2.20;1.90;;;;;;;18.12;48.33;100047.47;825486;24;1003;-76
2022/11/09 01:41:13;;;;;;;2.03;1.70;;;;;;;18.16;48.14;100054.44;827952;23;1062;-76
2022/11/09 01:41:33;;;;;;;1.80;1.60;;;;;;;18.14;48.30;100053.56;828018;23;1074;-76
2022/11/09 01:41:57;;;;;;;1.90;1.70;;;;;;;18.15;48.33;100060.63;825443;24;971;-76
2022/11/09 01:42:25;;;;;;;2.20;1.90;;;;;;;18.10;48.22;100052.75;827057;23;1175;-76
2022/11/09 01:42:45;;;;;;;2.88;2.00;;;;;;;18.09;48.21;100051.00;824008;23;2069;-76
2022/11/09 01:43:17;;;;;;;2.95;1.95;;;;;;;18.13;48.52;100050.06;825351;23;1023;-77
2022/11/09 01:43:38;;;;;;;3.38;2.03;;;;;;;18.14;48.29;100061.50;820436;24;1134;-75
2022/11/09 01:44:11;;;;;;;4.30;2.10;;;;;;;18.09;48.38;100059.78;823963;24;1082;-77